sensor_id;sensor_type;location;lat;lon;timestamp;P1;durP1;ratioP1;P2;durP2;ratioP2
21018;SDS011;10667;51.056;3.732;2022-11-15T00:00:27;31.38;;;21.83;;
21018;SDS011;10667;51.056;3.732;2022-11-15T00:02:53;32.88;;;21.65;;
21018;SDS011;10667;51.056;3.732;2022-11-15T00:05:19;31.75;;;21.77;;
21018;SDS011;10667;51.056;3.732;2022-11-15T00:07:44;28.58;;;20.35;;
21018;SDS011;10667;51.056;3.732;2022-11-15T00:10:10;37.75;;;21.73;;
21018;SDS011;10667;51.056;3.732;2022-11-15T00:12:36;30.60;;;19.52;;
21018;SDS011;10667;51.056;3.732;2022-11-15T00:15:01;30.50;;;19.80;;
21018;SDS011;10667;51.056;3.732;2022-11-15T00:17:27;26.60;;;19.05;;
21018;SDS011;10667;51.056;3.732;2022-11-15T00:19:53;35.35;;;20.70;;
21018;SDS011;10667;51.056;3.732;2022-11-15T00:22:18;28.00;;;17.63;;
21018;SDS011;10667;51.056;3.732;2022-11-15T00:24:44;29.38;;;18.98;;
21018;SDS011;10667;51.056;3.732;2022-11-15T00:27:10;23.90;;;17.58;;
21018;SDS011;10667;51.056;3.732;2022-11-15T00:29:35;27.27;;;18.73;;
21018;SDS011;10667;51.056;3.732;2022-11-15T00:32:03;29.95;;;17.50;;
21018;SDS011;10667;51.056;3.732;2022-11-15T00:34:29;26.20;;;18.52;;
21018;SDS011;10667;51.056;3.732;2022-11-15T00:36:55;28.00;;;17.90;;
21018;SDS011;10667;51.056;3.732;2022-11-15T00:39:21;26.20;;;17.02;;
21018;SDS011;10667;51.056;3.732;2022-11-15T00:41:47;25.95;;;17.08;;
21018;SDS011;10667;51.056;3.732;2022-11-15T00:44:12;24.98;;;16.77;;
21018;SDS011;10667;51.056;3.732;2022-11-15T00:46:38;24.38;;;16.38;;
21018;SDS011;10667;51.056;3.732;2022-11-15T00:49:04;23.15;;;16.52;;
21018;SDS011;10667;51.056;3.732;2022-11-15T00:51:29;23.80;;;16.90;;
21018;SDS011;10667;51.056;3.732;2022-11-15T00:53:55;24.88;;;17.50;;
21018;SDS011;10667;51.056;3.732;2022-11-15T00:56:21;25.20;;;16.67;;
21018;SDS011;10667;51.056;3.732;2022-11-15T00:58:46;25.70;;;16.92;;
21018;SDS011;10667;51.056;3.732;2022-11-15T01:01:13;24.00;;;16.77;;
21018;SDS011;10667;51.056;3.732;2022-11-15T01:03:40;26.48;;;16.05;;
21018;SDS011;10667;51.056;3.732;2022-11-15T01:06:06;27.00;;;16.92;;
21018;SDS011;10667;51.056;3.732;2022-11-15T01:08:33;27.58;;;17.42;;
21018;SDS011;10667;51.056;3.732;2022-11-15T01:11:03;24.42;;;16.88;;
21018;SDS011;10667;51.056;3.732;2022-11-15T01:13:31;23.42;;;17.27;;
21018;SDS011;10667;51.056;3.732;2022-11-15T01:15:58;27.13;;;17.40;;
21018;SDS011;10667;51.056;3.732;2022-11-15T01:18:24;25.90;;;17.70;;
21018;SDS011;10667;51.056;3.732;2022-11-15T01:20:49;28.30;;;16.88;;
21018;SDS011;10667;51.056;3.732;2022-11-15T01:23:15;24.40;;;16.52;;
21018;SDS011;10667;51.056;3.732;2022-11-15T01:25:41;29.95;;;18.10;;
21018;SDS011;10667;51.056;3.732;2022-11-15T01:28:07;27.90;;;16.83;;
21018;SDS011;10667;51.056;3.732;2022-11-15T01:30:33;24.85;;;16.95;;
21018;SDS011;10667;51.056;3.732;2022-11-15T01:32:58;23.98;;;17.15;;
21018;SDS011;10667;51.056;3.732;2022-11-15T01:35:24;26.17;;;17.35;;
21018;SDS011;10667;51.056;3.732;2022-11-15T01:37:50;25.17;;;16.30;;
21018;SDS011;10667;51.056;3.732;2022-11-15T01:40:15;22.65;;;16.23;;
21018;SDS011;10667;51.056;3.732;2022-11-15T01:42:41;24.92;;;17.20;;
21018;SDS011;10667;51.056;3.732;2022-11-15T01:45:11;25.23;;;15.05;;
21018;SDS011;10667;51.056;3.732;2022-11-15T01:47:40;21.77;;;15.50;;
21018;SDS011;10667;51.056;3.732;2022-11-15T01:50:14;25.02;;;14.68;;
21018;SDS011;10667;51.056;3.732;2022-11-15T01:52:42;25.23;;;14.95;;
21018;SDS011;10667;51.056;3.732;2022-11-15T01:55:13;22.30;;;14.50;;
21018;SDS011;10667;51.056;3.732;2022-11-15T01:57:42;22.55;;;14.13;;
21018;SDS011;10667;51.056;3.732;2022-11-15T02:00:11;21.33;;;13.82;;
21018;SDS011;10667;51.056;3.732;2022-11-15T02:02:37;23.65;;;14.77;;
21018;SDS011;10667;51.056;3.732;2022-11-15T02:05:04;24.80;;;12.63;;
21018;SDS011;10667;51.056;3.732;2022-11-15T02:07:30;22.02;;;13.00;;
21018;SDS011;10667;51.056;3.732;2022-11-15T02:10:01;20.23;;;12.90;;
21018;SDS011;10667;51.056;3.732;2022-11-15T02:12:44;21.77;;;12.43;;
21018;SDS011;10667;51.056;3.732;2022-11-15T02:15:11;19.38;;;12.35;;
21018;SDS011;10667;51.056;3.732;2022-11-15T02:18:01;21.75;;;12.18;;
21018;SDS011;10667;51.056;3.732;2022-11-15T02:20:40;18.40;;;10.98;;
21018;SDS011;10667;51.056;3.732;2022-11-15T02:28:47;18.10;;;10.85;;
21018;SDS011;10667;51.056;3.732;2022-11-15T02:31:32;20.67;;;10.35;;
21018;SDS011;10667;51.056;3.732;2022-11-15T02:34:34;16.98;;;10.77;;
21018;SDS011;10667;51.056;3.732;2022-11-15T02:43:10;15.90;;;9.20;;
21018;SDS011;10667;51.056;3.732;2022-11-15T02:46:31;19.38;;;10.60;;
21018;SDS011;10667;51.056;3.732;2022-11-15T02:49:13;18.27;;;9.48;;
21018;SDS011;10667;51.056;3.732;2022-11-15T02:51:40;17.83;;;10.10;;
21018;SDS011;10667;51.056;3.732;2022-11-15T02:54:11;16.25;;;9.73;;
21018;SDS011;10667;51.056;3.732;2022-11-15T02:56:39;15.52;;;8.90;;
21018;SDS011;10667;51.056;3.732;2022-11-15T03:07:09;12.25;;;7.68;;
21018;SDS011;10667;51.056;3.732;2022-11-15T03:09:46;12.75;;;8.07;;
21018;SDS011;10667;51.056;3.732;2022-11-15T03:12:30;15.95;;;8.10;;
21018;SDS011;10667;51.056;3.732;2022-11-15T03:15:06;13.75;;;7.55;;
21018;SDS011;10667;51.056;3.732;2022-11-15T03:18:00;15.48;;;7.30;;
21018;SDS011;10667;51.056;3.732;2022-11-15T03:20:35;12.45;;;7.55;;
21018;SDS011;10667;51.056;3.732;2022-11-15T03:23:04;17.17;;;7.78;;
21018;SDS011;10667;51.056;3.732;2022-11-15T03:25:33;14.30;;;6.93;;
21018;SDS011;10667;51.056;3.732;2022-11-15T03:28:03;13.85;;;6.82;;
21018;SDS011;10667;51.056;3.732;2022-11-15T03:30:32;8.98;;;6.22;;
21018;SDS011;10667;51.056;3.732;2022-11-15T03:33:01;18.75;;;7.63;;
21018;SDS011;10667;51.056;3.732;2022-11-15T03:35:30;10.65;;;6.70;;
21018;SDS011;10667;51.056;3.732;2022-11-15T03:38:08;12.23;;;6.93;;
21018;SDS011;10667;51.056;3.732;2022-11-15T03:40:43;13.93;;;6.40;;
21018;SDS011;10667;51.056;3.732;2022-11-15T03:46:20;12.43;;;6.03;;
21018;SDS011;10667;51.056;3.732;2022-11-15T03:48:53;12.23;;;7.00;;
21018;SDS011;10667;51.056;3.732;2022-11-15T03:51:29;16.23;;;7.15;;
21018;SDS011;10667;51.056;3.732;2022-11-15T03:53:55;13.30;;;6.55;;
21018;SDS011;10667;51.056;3.732;2022-11-15T03:56:20;11.25;;;6.30;;
21018;SDS011;10667;51.056;3.732;2022-11-15T03:58:46;13.55;;;6.78;;
21018;SDS011;10667;51.056;3.732;2022-11-15T04:01:11;13.00;;;6.95;;
21018;SDS011;10667;51.056;3.732;2022-11-15T04:03:37;12.82;;;6.60;;
21018;SDS011;10667;51.056;3.732;2022-11-15T04:06:03;13.00;;;6.18;;
21018;SDS011;10667;51.056;3.732;2022-11-15T04:08:29;12.65;;;6.80;;
21018;SDS011;10667;51.056;3.732;2022-11-15T04:10:54;14.88;;;7.47;;
21018;SDS011;10667;51.056;3.732;2022-11-15T04:13:20;12.73;;;6.70;;
21018;SDS011;10667;51.056;3.732;2022-11-15T04:15:45;14.55;;;7.03;;
21018;SDS011;10667;51.056;3.732;2022-11-15T04:18:11;9.45;;;6.10;;
21018;SDS011;10667;51.056;3.732;2022-11-15T04:20:37;11.90;;;6.80;;
21018;SDS011;10667;51.056;3.732;2022-11-15T04:23:22;14.63;;;7.72;;
21018;SDS011;10667;51.056;3.732;2022-11-15T04:28:50;16.05;;;6.60;;
21018;SDS011;10667;51.056;3.732;2022-11-15T04:31:34;12.90;;;7.00;;
21018;SDS011;10667;51.056;3.732;2022-11-15T04:34:00;12.80;;;6.38;;
21018;SDS011;10667;51.056;3.732;2022-11-15T04:36:25;11.82;;;6.40;;
21018;SDS011;10667;51.056;3.732;2022-11-15T04:39:09;13.70;;;6.00;;
21018;SDS011;10667;51.056;3.732;2022-11-15T04:41:35;14.40;;;6.43;;
21018;SDS011;10667;51.056;3.732;2022-11-15T04:44:01;9.20;;;5.53;;
21018;SDS011;10667;51.056;3.732;2022-11-15T04:46:27;10.95;;;6.90;;
21018;SDS011;10667;51.056;3.732;2022-11-15T04:48:53;11.55;;;5.57;;
21018;SDS011;10667;51.056;3.732;2022-11-15T04:51:19;12.27;;;5.85;;
21018;SDS011;10667;51.056;3.732;2022-11-15T04:53:45;9.93;;;5.25;;
21018;SDS011;10667;51.056;3.732;2022-11-15T04:56:11;10.52;;;5.65;;
21018;SDS011;10667;51.056;3.732;2022-11-15T04:58:37;12.10;;;5.35;;
21018;SDS011;10667;51.056;3.732;2022-11-15T05:01:09;12.23;;;5.97;;
21018;SDS011;10667;51.056;3.732;2022-11-15T05:03:37;12.52;;;5.32;;
21018;SDS011;10667;51.056;3.732;2022-11-15T05:06:21;11.05;;;5.28;;
21018;SDS011;10667;51.056;3.732;2022-11-15T05:08:47;10.10;;;5.30;;
21018;SDS011;10667;51.056;3.732;2022-11-15T05:11:12;16.10;;;5.72;;
21018;SDS011;10667;51.056;3.732;2022-11-15T05:13:38;10.48;;;5.72;;
21018;SDS011;10667;51.056;3.732;2022-11-15T05:16:04;11.55;;;5.72;;
21018;SDS011;10667;51.056;3.732;2022-11-15T05:18:29;11.40;;;5.32;;
21018;SDS011;10667;51.056;3.732;2022-11-15T05:20:55;17.25;;;6.13;;
21018;SDS011;10667;51.056;3.732;2022-11-15T05:23:27;11.60;;;5.45;;
21018;SDS011;10667;51.056;3.732;2022-11-15T05:25:53;9.55;;;5.88;;
21018;SDS011;10667;51.056;3.732;2022-11-15T05:28:18;16.98;;;5.70;;
21018;SDS011;10667;51.056;3.732;2022-11-15T05:30:44;9.90;;;5.32;;
21018;SDS011;10667;51.056;3.732;2022-11-15T05:33:09;15.27;;;5.50;;
21018;SDS011;10667;51.056;3.732;2022-11-15T05:35:39;13.52;;;6.65;;
21018;SDS011;10667;51.056;3.732;2022-11-15T05:38:07;13.38;;;5.10;;
21018;SDS011;10667;51.056;3.732;2022-11-15T05:40:32;16.70;;;4.88;;
21018;SDS011;10667;51.056;3.732;2022-11-15T05:42:59;9.90;;;5.78;;
21018;SDS011;10667;51.056;3.732;2022-11-15T05:45:27;10.73;;;5.05;;
21018;SDS011;10667;51.056;3.732;2022-11-15T05:47:54;13.77;;;5.50;;
21018;SDS011;10667;51.056;3.732;2022-11-15T05:50:22;12.90;;;5.63;;
21018;SDS011;10667;51.056;3.732;2022-11-15T05:52:48;7.68;;;5.43;;
21018;SDS011;10667;51.056;3.732;2022-11-15T05:55:14;12.00;;;5.03;;
21018;SDS011;10667;51.056;3.732;2022-11-15T05:57:40;9.82;;;5.32;;
21018;SDS011;10667;51.056;3.732;2022-11-15T06:00:06;8.05;;;4.72;;
21018;SDS011;10667;51.056;3.732;2022-11-15T06:02:34;10.75;;;4.60;;
21018;SDS011;10667;51.056;3.732;2022-11-15T06:05:00;10.05;;;4.85;;
21018;SDS011;10667;51.056;3.732;2022-11-15T06:07:26;9.30;;;5.15;;
21018;SDS011;10667;51.056;3.732;2022-11-15T06:09:51;10.90;;;6.00;;
21018;SDS011;10667;51.056;3.732;2022-11-15T06:12:17;9.38;;;5.45;;
21018;SDS011;10667;51.056;3.732;2022-11-15T06:14:43;13.13;;;5.63;;
21018;SDS011;10667;51.056;3.732;2022-11-15T06:17:08;8.88;;;5.50;;
21018;SDS011;10667;51.056;3.732;2022-11-15T06:19:34;14.55;;;6.43;;
21018;SDS011;10667;51.056;3.732;2022-11-15T06:22:00;10.48;;;5.90;;
21018;SDS011;10667;51.056;3.732;2022-11-15T06:24:26;10.00;;;5.45;;
21018;SDS011;10667;51.056;3.732;2022-11-15T06:26:51;12.57;;;6.40;;
21018;SDS011;10667;51.056;3.732;2022-11-15T06:29:17;8.32;;;5.30;;
21018;SDS011;10667;51.056;3.732;2022-11-15T06:31:43;15.95;;;6.88;;
21018;SDS011;10667;51.056;3.732;2022-11-15T06:34:08;13.18;;;6.63;;
21018;SDS011;10667;51.056;3.732;2022-11-15T06:36:35;10.88;;;5.85;;
21018;SDS011;10667;51.056;3.732;2022-11-15T06:39:01;13.85;;;6.70;;
21018;SDS011;10667;51.056;3.732;2022-11-15T06:41:33;11.50;;;5.90;;
21018;SDS011;10667;51.056;3.732;2022-11-15T06:44:00;11.68;;;6.80;;
21018;SDS011;10667;51.056;3.732;2022-11-15T06:46:26;12.52;;;6.97;;
21018;SDS011;10667;51.056;3.732;2022-11-15T06:48:52;10.13;;;6.45;;
21018;SDS011;10667;51.056;3.732;2022-11-15T06:51:18;11.23;;;6.72;;
21018;SDS011;10667;51.056;3.732;2022-11-15T06:53:44;15.27;;;6.93;;
21018;SDS011;10667;51.056;3.732;2022-11-15T06:56:10;11.02;;;6.70;;
21018;SDS011;10667;51.056;3.732;2022-11-15T06:58:36;14.73;;;7.03;;
21018;SDS011;10667;51.056;3.732;2022-11-15T07:01:06;9.82;;;6.30;;
21018;SDS011;10667;51.056;3.732;2022-11-15T07:03:36;10.30;;;6.18;;
21018;SDS011;10667;51.056;3.732;2022-11-15T07:06:03;12.20;;;6.28;;
21018;SDS011;10667;51.056;3.732;2022-11-15T07:08:29;11.30;;;6.65;;
21018;SDS011;10667;51.056;3.732;2022-11-15T07:10:59;12.90;;;6.22;;
21018;SDS011;10667;51.056;3.732;2022-11-15T07:13:27;13.55;;;6.22;;
21018;SDS011;10667;51.056;3.732;2022-11-15T07:15:54;12.27;;;6.60;;
21018;SDS011;10667;51.056;3.732;2022-11-15T07:18:20;16.98;;;6.88;;
21018;SDS011;10667;51.056;3.732;2022-11-15T07:20:46;10.80;;;6.30;;
21018;SDS011;10667;51.056;3.732;2022-11-15T07:23:11;12.63;;;5.85;;
21018;SDS011;10667;51.056;3.732;2022-11-15T07:25:37;10.45;;;6.40;;
21018;SDS011;10667;51.056;3.732;2022-11-15T07:28:03;9.40;;;6.03;;
21018;SDS011;10667;51.056;3.732;2022-11-15T07:30:29;12.02;;;6.07;;
21018;SDS011;10667;51.056;3.732;2022-11-15T07:35:21;12.23;;;6.43;;
21018;SDS011;10667;51.056;3.732;2022-11-15T07:37:57;9.73;;;6.13;;
21018;SDS011;10667;51.056;3.732;2022-11-15T07:40:24;13.55;;;5.97;;
21018;SDS011;10667;51.056;3.732;2022-11-15T07:42:51;6.95;;;5.32;;
21018;SDS011;10667;51.056;3.732;2022-11-15T07:45:21;11.80;;;6.00;;
21018;SDS011;10667;51.056;3.732;2022-11-15T07:47:48;9.45;;;5.72;;
21018;SDS011;10667;51.056;3.732;2022-11-15T07:50:14;11.65;;;6.43;;
21018;SDS011;10667;51.056;3.732;2022-11-15T07:52:41;8.98;;;5.85;;
21018;SDS011;10667;51.056;3.732;2022-11-15T07:55:07;8.52;;;5.72;;
21018;SDS011;10667;51.056;3.732;2022-11-15T07:57:33;13.43;;;6.32;;
21018;SDS011;10667;51.056;3.732;2022-11-15T07:59:59;11.10;;;6.38;;
21018;SDS011;10667;51.056;3.732;2022-11-15T08:02:24;16.17;;;5.95;;
21018;SDS011;10667;51.056;3.732;2022-11-15T08:04:50;14.63;;;7.18;;
21018;SDS011;10667;51.056;3.732;2022-11-15T08:07:16;7.65;;;5.47;;
21018;SDS011;10667;51.056;3.732;2022-11-15T08:09:41;10.95;;;5.93;;
21018;SDS011;10667;51.056;3.732;2022-11-15T08:12:07;11.35;;;6.38;;
21018;SDS011;10667;51.056;3.732;2022-11-15T08:14:33;18.42;;;6.07;;
21018;SDS011;10667;51.056;3.732;2022-11-15T08:16:59;9.57;;;5.22;;
21018;SDS011;10667;51.056;3.732;2022-11-15T08:19:25;9.32;;;5.38;;
21018;SDS011;10667;51.056;3.732;2022-11-15T08:21:50;9.80;;;5.35;;
21018;SDS011;10667;51.056;3.732;2022-11-15T08:24:16;11.48;;;5.15;;
21018;SDS011;10667;51.056;3.732;2022-11-15T08:26:42;12.35;;;5.57;;
21018;SDS011;10667;51.056;3.732;2022-11-15T08:29:07;10.45;;;4.78;;
21018;SDS011;10667;51.056;3.732;2022-11-15T08:31:33;22.55;;;5.95;;
21018;SDS011;10667;51.056;3.732;2022-11-15T08:34:01;13.57;;;5.43;;
21018;SDS011;10667;51.056;3.732;2022-11-15T08:36:27;8.13;;;4.68;;
21018;SDS011;10667;51.056;3.732;2022-11-15T08:38:53;10.88;;;4.47;;
21018;SDS011;10667;51.056;3.732;2022-11-15T08:41:32;10.48;;;4.50;;
21018;SDS011;10667;51.056;3.732;2022-11-15T08:44:00;9.32;;;3.83;;
21018;SDS011;10667;51.056;3.732;2022-11-15T08:46:26;10.70;;;4.20;;
21018;SDS011;10667;51.056;3.732;2022-11-15T08:48:52;13.73;;;4.97;;
21018;SDS011;10667;51.056;3.732;2022-11-15T08:51:17;10.88;;;4.88;;
21018;SDS011;10667;51.056;3.732;2022-11-15T08:53:43;11.07;;;3.95;;
21018;SDS011;10667;51.056;3.732;2022-11-15T08:56:10;13.52;;;4.18;;
21018;SDS011;10667;51.056;3.732;2022-11-15T08:58:37;10.45;;;3.92;;
21018;SDS011;10667;51.056;3.732;2022-11-15T09:01:03;10.38;;;3.85;;
21018;SDS011;10667;51.056;3.732;2022-11-15T09:03:29;6.47;;;3.10;;
21018;SDS011;10667;51.056;3.732;2022-11-15T09:05:56;9.13;;;3.83;;
21018;SDS011;10667;51.056;3.732;2022-11-15T09:08:23;7.15;;;3.42;;
21018;SDS011;10667;51.056;3.732;2022-11-15T09:10:49;11.65;;;4.30;;
21018;SDS011;10667;51.056;3.732;2022-11-15T09:13:15;10.57;;;4.18;;
21018;SDS011;10667;51.056;3.732;2022-11-15T09:15:40;8.23;;;3.05;;
21018;SDS011;10667;51.056;3.732;2022-11-15T09:18:06;12.65;;;3.40;;
21018;SDS011;10667;51.056;3.732;2022-11-15T09:20:32;12.18;;;3.42;;
21018;SDS011;10667;51.056;3.732;2022-11-15T09:23:01;11.75;;;3.65;;
21018;SDS011;10667;51.056;3.732;2022-11-15T09:25:28;10.07;;;3.30;;
21018;SDS011;10667;51.056;3.732;2022-11-15T09:27:54;15.32;;;3.58;;
21018;SDS011;10667;51.056;3.732;2022-11-15T09:30:20;7.67;;;2.93;;
21018;SDS011;10667;51.056;3.732;2022-11-15T09:32:46;9.75;;;3.42;;
21018;SDS011;10667;51.056;3.732;2022-11-15T09:35:12;7.53;;;3.47;;
21018;SDS011;10667;51.056;3.732;2022-11-15T09:37:38;14.57;;;3.00;;
21018;SDS011;10667;51.056;3.732;2022-11-15T09:40:03;9.75;;;3.35;;
21018;SDS011;10667;51.056;3.732;2022-11-15T09:42:41;7.05;;;3.20;;
21018;SDS011;10667;51.056;3.732;2022-11-15T09:50:31;11.68;;;3.42;;
21018;SDS011;10667;51.056;3.732;2022-11-15T09:53:03;11.30;;;4.13;;
21018;SDS011;10667;51.056;3.732;2022-11-15T09:55:35;13.27;;;3.67;;
21018;SDS011;10667;51.056;3.732;2022-11-15T09:58:15;6.32;;;2.80;;
21018;SDS011;10667;51.056;3.732;2022-11-15T10:00:51;8.00;;;2.90;;
21018;SDS011;10667;51.056;3.732;2022-11-15T10:03:33;11.82;;;2.67;;
21018;SDS011;10667;51.056;3.732;2022-11-15T10:06:02;6.78;;;3.15;;
21018;SDS011;10667;51.056;3.732;2022-11-15T10:11:27;9.20;;;3.00;;
21018;SDS011;10667;51.056;3.732;2022-11-15T10:13:57;9.77;;;2.53;;
21018;SDS011;10667;51.056;3.732;2022-11-15T10:21:25;7.47;;;2.65;;
21018;SDS011;10667;51.056;3.732;2022-11-15T10:24:12;9.25;;;2.92;;
21018;SDS011;10667;51.056;3.732;2022-11-15T10:26:47;16.95;;;3.10;;
21018;SDS011;10667;51.056;3.732;2022-11-15T10:29:22;8.38;;;3.15;;
21018;SDS011;10667;51.056;3.732;2022-11-15T10:31:49;8.95;;;2.78;;
21018;SDS011;10667;51.056;3.732;2022-11-15T10:34:19;10.50;;;2.63;;
21018;SDS011;10667;51.056;3.732;2022-11-15T10:36:56;10.95;;;2.85;;
21018;SDS011;10667;51.056;3.732;2022-11-15T10:39:24;9.55;;;2.45;;
21018;SDS011;10667;51.056;3.732;2022-11-15T10:41:50;7.95;;;2.88;;
21018;SDS011;10667;51.056;3.732;2022-11-15T10:46:42;5.68;;;2.42;;
21018;SDS011;10667;51.056;3.732;2022-11-15T10:57:21;11.25;;;3.05;;
21018;SDS011;10667;51.056;3.732;2022-11-15T10:59:51;13.20;;;3.08;;
21018;SDS011;10667;51.056;3.732;2022-11-15T11:04:56;10.43;;;2.35;;
21018;SDS011;10667;51.056;3.732;2022-11-15T11:07:24;12.77;;;2.70;;
21018;SDS011;10667;51.056;3.732;2022-11-15T11:10:05;6.57;;;2.20;;
21018;SDS011;10667;51.056;3.732;2022-11-15T11:12:43;6.85;;;2.00;;
21018;SDS011;10667;51.056;3.732;2022-11-15T11:15:11;10.07;;;2.67;;
21018;SDS011;10667;51.056;3.732;2022-11-15T11:20:30;6.30;;;2.15;;
21018;SDS011;10667;51.056;3.732;2022-11-15T11:28:59;9.55;;;1.98;;
21018;SDS011;10667;51.056;3.732;2022-11-15T11:37:47;10.13;;;2.65;;
21018;SDS011;10667;51.056;3.732;2022-11-15T11:42:56;10.35;;;2.60;;
21018;SDS011;10667;51.056;3.732;2022-11-15T11:45:44;12.85;;;3.55;;
21018;SDS011;10667;51.056;3.732;2022-11-15T11:48:29;20.55;;;8.32;;
21018;SDS011;10667;51.056;3.732;2022-11-15T11:51:39;10.60;;;3.42;;
21018;SDS011;10667;51.056;3.732;2022-11-15T11:56:50;9.00;;;2.55;;
21018;SDS011;10667;51.056;3.732;2022-11-15T11:59:37;9.52;;;2.78;;
21018;SDS011;10667;51.056;3.732;2022-11-15T12:02:15;7.75;;;2.30;;
21018;SDS011;10667;51.056;3.732;2022-11-15T12:08:23;11.07;;;2.42;;
21018;SDS011;10667;51.056;3.732;2022-11-15T12:10:48;9.23;;;2.25;;
21018;SDS011;10667;51.056;3.732;2022-11-15T12:13:24;8.25;;;2.22;;
21018;SDS011;10667;51.056;3.732;2022-11-15T12:16:03;7.43;;;2.13;;
21018;SDS011;10667;51.056;3.732;2022-11-15T12:18:34;10.07;;;2.67;;
21018;SDS011;10667;51.056;3.732;2022-11-15T12:21:33;10.07;;;2.17;;
21018;SDS011;10667;51.056;3.732;2022-11-15T12:23:51;4.85;;;2.22;;
21018;SDS011;10667;51.056;3.732;2022-11-15T12:26:22;9.20;;;2.42;;
21018;SDS011;10667;51.056;3.732;2022-11-15T12:28:52;5.13;;;2.30;;
21018;SDS011;10667;51.056;3.732;2022-11-15T12:33:57;8.43;;;2.40;;
21018;SDS011;10667;51.056;3.732;2022-11-15T12:39:05;9.48;;;2.30;;
21018;SDS011;10667;51.056;3.732;2022-11-15T12:41:41;4.47;;;2.92;;
21018;SDS011;10667;51.056;3.732;2022-11-15T13:02:18;8.18;;;2.53;;
21018;SDS011;10667;51.056;3.732;2022-11-15T13:20:16;7.85;;;2.30;;
21018;SDS011;10667;51.056;3.732;2022-11-15T13:23:00;4.65;;;2.22;;
21018;SDS011;10667;51.056;3.732;2022-11-15T13:28:30;7.30;;;2.38;;
21018;SDS011;10667;51.056;3.732;2022-11-15T13:31:18;8.70;;;2.05;;
21018;SDS011;10667;51.056;3.732;2022-11-15T13:33:46;9.00;;;2.13;;
21018;SDS011;10667;51.056;3.732;2022-11-15T13:36:17;8.65;;;2.22;;
21018;SDS011;10667;51.056;3.732;2022-11-15T13:38:54;6.53;;;2.25;;
21018;SDS011;10667;51.056;3.732;2022-11-15T13:41:23;6.15;;;2.38;;
21018;SDS011;10667;51.056;3.732;2022-11-15T13:43:51;7.15;;;2.10;;
21018;SDS011;10667;51.056;3.732;2022-11-15T13:49:07;4.97;;;1.85;;
21018;SDS011;10667;51.056;3.732;2022-11-15T13:56:53;6.82;;;2.03;;
21018;SDS011;10667;51.056;3.732;2022-11-15T13:59:31;7.68;;;2.17;;
21018;SDS011;10667;51.056;3.732;2022-11-15T14:02:02;7.65;;;2.00;;
21018;SDS011;10667;51.056;3.732;2022-11-15T14:04:45;6.60;;;2.10;;
21018;SDS011;10667;51.056;3.732;2022-11-15T14:07:18;6.13;;;2.50;;
21018;SDS011;10667;51.056;3.732;2022-11-15T14:09:45;6.03;;;2.25;;
21018;SDS011;10667;51.056;3.732;2022-11-15T14:14:46;7.18;;;2.42;;
21018;SDS011;10667;51.056;3.732;2022-11-15T14:19:53;7.25;;;2.30;;
21018;SDS011;10667;51.056;3.732;2022-11-15T14:22:23;4.53;;;1.95;;
21018;SDS011;10667;51.056;3.732;2022-11-15T14:25:24;6.20;;;2.15;;
21018;SDS011;10667;51.056;3.732;2022-11-15T14:30:32;8.20;;;2.42;;
21018;SDS011;10667;51.056;3.732;2022-11-15T14:32:58;4.30;;;2.22;;
21018;SDS011;10667;51.056;3.732;2022-11-15T14:35:24;3.90;;;2.20;;
21018;SDS011;10667;51.056;3.732;2022-11-15T14:37:49;4.50;;;2.47;;
21018;SDS011;10667;51.056;3.732;2022-11-15T14:40:19;6.57;;;2.70;;
21018;SDS011;10667;51.056;3.732;2022-11-15T14:42:46;2.83;;;2.47;;
21018;SDS011;10667;51.056;3.732;2022-11-15T14:45:15;7.80;;;3.10;;
21018;SDS011;10667;51.056;3.732;2022-11-15T14:47:43;5.20;;;2.45;;
21018;SDS011;10667;51.056;3.732;2022-11-15T14:50:13;6.32;;;2.38;;
21018;SDS011;10667;51.056;3.732;2022-11-15T14:52:41;7.10;;;3.10;;
21018;SDS011;10667;51.056;3.732;2022-11-15T14:57:36;5.60;;;2.75;;
21018;SDS011;10667;51.056;3.732;2022-11-15T15:00:02;9.20;;;3.53;;
21018;SDS011;10667;51.056;3.732;2022-11-15T15:02:29;9.65;;;3.10;;
21018;SDS011;10667;51.056;3.732;2022-11-15T15:04:55;7.80;;;2.97;;
21018;SDS011;10667;51.056;3.732;2022-11-15T15:07:21;4.60;;;2.97;;
21018;SDS011;10667;51.056;3.732;2022-11-15T15:09:47;4.60;;;3.30;;
21018;SDS011;10667;51.056;3.732;2022-11-15T15:12:17;4.18;;;2.45;;
21018;SDS011;10667;51.056;3.732;2022-11-15T15:14:45;5.32;;;3.50;;
21018;SDS011;10667;51.056;3.732;2022-11-15T15:17:12;3.88;;;3.08;;
21018;SDS011;10667;51.056;3.732;2022-11-15T15:19:39;6.65;;;3.85;;
21018;SDS011;10667;51.056;3.732;2022-11-15T15:22:04;5.13;;;3.50;;
21018;SDS011;10667;51.056;3.732;2022-11-15T15:24:30;4.13;;;3.20;;
21018;SDS011;10667;51.056;3.732;2022-11-15T15:26:57;8.50;;;3.65;;
21018;SDS011;10667;51.056;3.732;2022-11-15T15:29:22;5.72;;;3.58;;
21018;SDS011;10667;51.056;3.732;2022-11-15T15:31:48;7.47;;;3.95;;
21018;SDS011;10667;51.056;3.732;2022-11-15T15:34:13;6.30;;;4.15;;
21018;SDS011;10667;51.056;3.732;2022-11-15T15:36:39;7.70;;;4.00;;
21018;SDS011;10667;51.056;3.732;2022-11-15T15:39:07;7.10;;;3.45;;
21018;SDS011;10667;51.056;3.732;2022-11-15T15:41:35;7.60;;;4.38;;
21018;SDS011;10667;51.056;3.732;2022-11-15T15:44:00;6.60;;;3.72;;
21018;SDS011;10667;51.056;3.732;2022-11-15T15:46:26;5.85;;;4.28;;
21018;SDS011;10667;51.056;3.732;2022-11-15T15:48:52;6.15;;;4.22;;
21018;SDS011;10667;51.056;3.732;2022-11-15T15:51:18;8.32;;;4.30;;
21018;SDS011;10667;51.056;3.732;2022-11-15T15:53:43;12.38;;;4.70;;
21018;SDS011;10667;51.056;3.732;2022-11-15T15:56:09;11.70;;;7.32;;
21018;SDS011;10667;51.056;3.732;2022-11-15T15:58:35;6.13;;;4.00;;
21018;SDS011;10667;51.056;3.732;2022-11-15T16:01:01;10.10;;;3.90;;
21018;SDS011;10667;51.056;3.732;2022-11-15T16:03:27;6.15;;;4.10;;
21018;SDS011;10667;51.056;3.732;2022-11-15T16:05:53;7.50;;;3.92;;
21018;SDS011;10667;51.056;3.732;2022-11-15T16:08:20;5.03;;;3.55;;
21018;SDS011;10667;51.056;3.732;2022-11-15T16:10:47;4.85;;;4.07;;
21018;SDS011;10667;51.056;3.732;2022-11-15T16:13:13;7.30;;;4.00;;
21018;SDS011;10667;51.056;3.732;2022-11-15T16:15:39;7.15;;;3.90;;
21018;SDS011;10667;51.056;3.732;2022-11-15T16:18:09;8.13;;;3.97;;
21018;SDS011;10667;51.056;3.732;2022-11-15T16:20:41;5.57;;;3.63;;
21018;SDS011;10667;51.056;3.732;2022-11-15T16:23:13;5.10;;;3.67;;
21018;SDS011;10667;51.056;3.732;2022-11-15T16:28:29;5.25;;;3.67;;
21018;SDS011;10667;51.056;3.732;2022-11-15T16:31:07;5.93;;;3.83;;
21018;SDS011;10667;51.056;3.732;2022-11-15T16:33:34;7.30;;;4.78;;
21018;SDS011;10667;51.056;3.732;2022-11-15T16:36:01;5.53;;;3.90;;
21018;SDS011;10667;51.056;3.732;2022-11-15T16:38:28;4.72;;;3.38;;
21018;SDS011;10667;51.056;3.732;2022-11-15T16:40:55;4.30;;;3.50;;
21018;SDS011;10667;51.056;3.732;2022-11-15T16:43:22;5.07;;;3.40;;
21018;SDS011;10667;51.056;3.732;2022-11-15T16:45:48;4.22;;;3.80;;
21018;SDS011;10667;51.056;3.732;2022-11-15T16:48:22;5.20;;;3.88;;
21018;SDS011;10667;51.056;3.732;2022-11-15T16:50:49;6.47;;;3.92;;
21018;SDS011;10667;51.056;3.732;2022-11-15T16:53:15;3.92;;;3.47;;
21018;SDS011;10667;51.056;3.732;2022-11-15T16:55:41;7.15;;;4.20;;
21018;SDS011;10667;51.056;3.732;2022-11-15T16:58:07;7.97;;;4.53;;
21018;SDS011;10667;51.056;3.732;2022-11-15T17:00:34;6.45;;;4.18;;
21018;SDS011;10667;51.056;3.732;2022-11-15T17:03:00;4.82;;;4.32;;
21018;SDS011;10667;51.056;3.732;2022-11-15T17:05:27;11.20;;;7.78;;
21018;SDS011;10667;51.056;3.732;2022-11-15T17:07:53;6.30;;;4.30;;
21018;SDS011;10667;51.056;3.732;2022-11-15T17:10:23;6.05;;;5.03;;